Poughquag, NY

6:40 PM EDT on September 25, 2016 (GMT -0400)
Blueberry Mtn | | Change Station
Active Advisory: Frost Advisory

Elev 1250 ft 41.64 °N, 73.64 °W | Updated 9 minutes ago

Clear
Clear
59.2 °F
Feels Like 59.2 °F
N
1.0
Wind Variable Wind from North
Gusts 1.0 mph

Today
High -- | Low -- °F
--% Chance of Precip.
Yesterday
High -- | Low -- °F
Precip. -- in
Pressure 30.11 in
Visibility 10.0 miles
Clouds Clear
Dew Point 35 °F
Humidity 40%
Rainfall 0.00 in
Snow Depth Not available.
6:45 AM 6:45 PM
Waning Crescent, 24% visible
METAR KPOU 252153Z AUTO 05006KT 10SM CLR 18/01 A3012 RMK AO2 SLP195 T01830006
Pressure 30.11 in
Visibility 10.0 miles
Clouds Clear
Dew Point 35 °F
Humidity 40%
Rainfall 0.00 in
Snow Depth Not available.
6:45 AM 6:45 PM
Waning Crescent, 24% visible
METAR KPOU 252153Z AUTO 05006KT 10SM CLR 18/01 A3012 RMK AO2 SLP195 T01830006

10-Day Weather Forecast

Almanac

Astronomy

Sep. 25, 2016 Rise Set
Actual Time
Civil Twilight
Nautical Twilight
Astronomical Twilight
Moon
Length of Visible Light
Length of Day
Tomorrow will be .
, % of the Moon is Illuminated

Today's Extremes

State Highs State Lows

Community

WunderPhotos

Upload Photos

1,941,759 photos uploaded!

WunderBlog® & News

Nearby

Air Quality

  Air Quality AQ Index Pollutant
Not available.

Snow Depth

Station Depth Elevation

Earthquake Activity

City Distance Mag. Time & Date
Minimum magnitude displayed is 2.5.

Coastal Water Temperatures

Place Temperature

Stations

Nearby Weather Stations

Station Location Temp. Windchill Dew Point Humidity Wind Precip. Elev Updated Type
                   

Watches & Warnings

Frost Advisory
Issued: 3:14 PM EDT Sep. 25, 2016 – National Weather Service

... Frost advisory remains in effect from 2 am to 8 am EDT
Monday...

* locations... Mohawk Valley... Saratoga region... capital region...
   Taconics... Mid Hudson valley... eastern Catskills... northwest
Connecticut... Berkshires and all of southern Vermont.

* Temperatures... in the middle 30s.

* Impacts... potential frost damage to sensitive plants and crops.

Precautionary/preparedness actions...

A frost advisory means that widespread frost is expected.
Sensitive outdoor plants may be killed if left uncovered.